Overview Statistics Trail Chart Weather Telemetry Raw packets
 

This is the latest recevied weather packets stored in our database for station/object IU5GBO-13. If no packets are shown the sender has not sent any weather packets the latest 10 day(s).

<< 51 52 53 54 55 56 57 >>
Time Temp. Humidity Pressure Rain* Wind** Luminosity Snow
1777271852 13.89° C 55% 1021.3 hPa - - - -
1777271252 13.33° C 57% 1021.3 hPa - - - -
1777270652 13.33° C 59% 1021.2 hPa - - - -
1777270052 11.67° C 63% 1021.2 hPa - - - -
1777269452 10.56° C 64% 1021.2 hPa - - - -
1777268852 10° C 67% 1021.2 hPa - - - -
1777268252 9.44° C 68% 1021.1 hPa - - - -
1777267652 8.89° C 69% 1021.1 hPa - - - -
1777267052 8.89° C 69% 1020.9 hPa - - - -
1777266452 8.33° C 70% 1020.8 hPa - - - -
1777265852 8.89° C 70% 1020.7 hPa - - - -
1777265252 8.33° C 70% 1020.5 hPa - - - -
1777264652 7.78° C 71% 1020.5 hPa - - - -
1777264052 7.78° C 70% 1020.4 hPa - - - -
1777263452 7.78° C 70% 1020.4 hPa - - - -
1777262852 7.78° C 70% 1020.3 hPa - - - -
1777262252 7.78° C 69% 1020.3 hPa - - - -
1777261652 8.33° C 67% 1020.3 hPa - - - -
1777261055 8.33° C 69% 1020.3 hPa - - - -
1777260452 8.89° C 67% 1020.2 hPa - - - -
1777259852 8.89° C 68% 1020.2 hPa - - - -
1777259252 8.33° C 69% 1020.2 hPa - - - -
1777258652 8.33° C 69% 1020.3 hPa - - - -
1777258052 8.33° C 68% 1020.5 hPa - - - -
1777257452 8.89° C 68% 1020.4 hPa - - - -

* Rain since midnight (hover to see other rain measurements)
** Current wind speed in m/s (hover to see current wind gust speed)